createdAt,value
2022-10-20T00:00:27.077Z,68.14
2022-10-20T00:03:30.377Z,68.52
2022-10-20T00:06:34.101Z,68.70
2022-10-20T00:09:37.206Z,68.66
2022-10-20T00:12:39.702Z,68.65
2022-10-20T00:15:48.944Z,68.82
2022-10-20T00:18:51.772Z,69.03
2022-10-20T00:21:54.865Z,69.46
2022-10-20T00:24:57.393Z,69.61
2022-10-20T00:28:00.259Z,69.50
2022-10-20T00:31:04.156Z,69.65
2022-10-20T00:34:06.935Z,69.56
2022-10-20T00:37:09.395Z,69.76
2022-10-20T00:40:14.136Z,69.71
2022-10-20T00:43:17.606Z,69.79
2022-10-20T00:46:23.295Z,70.12
2022-10-20T00:49:26.442Z,70.39
2022-10-20T00:52:29.240Z,70.17
2022-10-20T00:55:34.372Z,70.38
2022-10-20T00:58:37.705Z,70.25
2022-10-20T01:01:40.550Z,70.60
2022-10-20T01:04:43.486Z,70.58
2022-10-20T01:07:45.976Z,70.58
2022-10-20T01:11:15.691Z,70.77
2022-10-20T01:14:55.065Z,70.89
2022-10-20T01:18:15.688Z,71.07
2022-10-20T01:21:51.442Z,71.11
2022-10-20T01:25:31.537Z,71.30
2022-10-20T01:28:43.461Z,71.39
2022-10-20T01:31:53.936Z,71.64
2022-10-20T01:35:05.427Z,71.59
2022-10-20T01:38:21.088Z,71.83
2022-10-20T01:41:47.426Z,71.78
2022-10-20T01:44:52.170Z,71.81
2022-10-20T01:47:55.064Z,71.65
2022-10-20T01:51:01.687Z,71.73
2022-10-20T01:54:04.269Z,71.77
2022-10-20T01:57:17.203Z,71.80
2022-10-20T02:00:20.111Z,72.14
2022-10-20T02:03:44.408Z,72.18
2022-10-20T02:07:15.728Z,72.22
2022-10-20T02:10:21.659Z,72.24
2022-10-20T02:13:25.822Z,72.50
2022-10-20T02:16:32.924Z,72.55
2022-10-20T02:19:39.861Z,73.04
2022-10-20T02:22:43.625Z,72.86
2022-10-20T02:25:49.935Z,72.76
2022-10-20T02:28:57.079Z,72.84
2022-10-20T02:31:59.815Z,72.95
2022-10-20T02:35:08.197Z,73.54
2022-10-20T02:38:10.756Z,73.20
2022-10-20T02:41:14.064Z,73.32
2022-10-20T02:44:16.532Z,73.29
2022-10-20T02:47:21.113Z,73.24
2022-10-20T02:50:24.823Z,73.55
2022-10-20T02:53:27.987Z,73.37
2022-10-20T02:56:31.162Z,73.94
2022-10-20T02:59:40.139Z,73.87
2022-10-20T03:02:42.711Z,74.18
2022-10-20T03:05:46.970Z,73.81
2022-10-20T03:08:56.745Z,73.67
2022-10-20T03:11:59.821Z,73.85
2022-10-20T03:15:02.359Z,73.97
2022-10-20T03:18:05.402Z,74.10
2022-10-20T03:21:09.321Z,74.06
2022-10-20T03:24:15.933Z,74.98
2022-10-20T03:27:18.397Z,74.76
2022-10-20T03:30:21.332Z,75.01
2022-10-20T03:33:24.967Z,75.02
2022-10-20T03:36:27.722Z,74.88
2022-10-20T03:39:30.247Z,75.01
2022-10-20T03:42:33.342Z,75.46
2022-10-20T03:45:39.836Z,75.25
2022-10-20T03:48:45.810Z,75.10
2022-10-20T03:51:48.310Z,74.91
2022-10-20T03:54:51.294Z,74.84
2022-10-20T03:57:53.816Z,74.84
2022-10-20T04:01:01.345Z,74.62
2022-10-20T04:04:18.876Z,74.64
2022-10-20T04:07:21.413Z,74.53
2022-10-20T04:10:27.913Z,74.56
2022-10-20T04:13:31.990Z,74.69
2022-10-20T04:16:37.342Z,74.50
2022-10-20T04:19:39.959Z,74.25
2022-10-20T04:22:42.764Z,74.44
2022-10-20T04:25:48.392Z,74.31
2022-10-20T04:28:51.382Z,74.70
2022-10-20T04:31:54.018Z,74.69
2022-10-20T04:34:56.857Z,75.08
2022-10-20T04:37:59.360Z,75.04
2022-10-20T04:41:04.673Z,75.07
2022-10-20T04:44:07.180Z,75.01
2022-10-20T04:47:12.933Z,75.05
2022-10-20T04:50:16.072Z,75.05
2022-10-20T04:53:33.535Z,75.15
2022-10-20T04:56:35.990Z,75.13
2022-10-20T04:59:38.798Z,75.03
2022-10-20T05:02:41.257Z,75.12
2022-10-20T05:05:44.060Z,74.94
2022-10-20T05:08:48.499Z,74.97
2022-10-20T05:11:51.549Z,75.06
2022-10-20T05:14:54.138Z,75.49
2022-10-20T05:17:58.068Z,75.28
2022-10-20T05:21:17.522Z,75.31
2022-10-20T05:24:22.095Z,75.53
2022-10-20T05:27:26.352Z,75.60
2022-10-20T05:30:38.503Z,75.78
2022-10-20T05:33:51.849Z,75.93
2022-10-20T05:36:54.644Z,76.06
2022-10-20T05:39:57.150Z,76.53
2022-10-20T05:43:00.090Z,77.13
2022-10-20T05:46:03.302Z,77.13
2022-10-20T05:49:06.067Z,77.22
2022-10-20T05:52:11.733Z,77.42
2022-10-20T05:55:14.584Z,77.77
2022-10-20T05:58:19.686Z,78.03
2022-10-20T06:01:39.671Z,78.28
2022-10-20T06:04:42.521Z,79.10
2022-10-20T06:07:45.016Z,80.15
2022-10-20T06:10:48.143Z,80.00
2022-10-20T06:13:52.936Z,80.06
2022-10-20T06:16:56.827Z,80.19
2022-10-20T06:19:59.446Z,80.50
2022-10-20T06:23:02.264Z,80.06
2022-10-20T06:26:10.695Z,79.95
2022-10-20T06:29:17.148Z,80.09
2022-10-20T06:32:19.690Z,80.44
2022-10-20T06:35:22.518Z,81.03
2022-10-20T06:38:24.975Z,80.99
2022-10-20T06:41:29.622Z,80.78
2022-10-20T06:44:32.100Z,80.85
2022-10-20T06:47:35.341Z,81.29
2022-10-20T06:50:40.282Z,81.05
2022-10-20T06:53:46.529Z,81.37
2022-10-20T06:56:49.495Z,81.50
2022-10-20T06:59:52.489Z,81.41
2022-10-20T07:02:54.994Z,81.44
2022-10-20T07:05:58.209Z,81.65
2022-10-20T07:09:03.917Z,81.48
2022-10-20T07:12:06.767Z,82.30
2022-10-20T07:15:09.756Z,82.01
2022-10-20T07:18:13.058Z,82.73
2022-10-20T07:21:22.112Z,82.66
2022-10-20T07:24:25.162Z,82.03
2022-10-20T07:27:27.727Z,81.28
2022-10-20T07:30:39.941Z,81.37
2022-10-20T07:33:42.518Z,79.96
2022-10-20T07:36:45.560Z,78.94
2022-10-20T07:39:48.236Z,78.41
2022-10-20T07:42:51.104Z,77.28
2022-10-20T07:45:53.607Z,76.79
2022-10-20T07:49:02.685Z,76.30
2022-10-20T07:52:16.480Z,75.71
2022-10-20T07:55:37.747Z,74.86
2022-10-20T07:58:42.226Z,74.53
2022-10-20T08:01:45.061Z,73.77
2022-10-20T08:04:47.919Z,73.53
2022-10-20T08:07:50.456Z,73.17
2022-10-20T08:10:58.825Z,72.52
2022-10-20T08:14:01.371Z,72.18
2022-10-20T08:17:04.536Z,71.99
2022-10-20T08:20:23.600Z,71.41
2022-10-20T08:23:29.213Z,70.50
2022-10-20T08:26:31.709Z,70.36
2022-10-20T08:29:34.450Z,69.83
2022-10-20T08:32:37.739Z,69.43
2022-10-20T08:35:40.626Z,68.27
2022-10-20T08:38:43.852Z,67.63
2022-10-20T08:42:06.860Z,67.51
2022-10-20T08:45:19.603Z,67.35
2022-10-20T08:48:24.928Z,66.79
2022-10-20T08:51:31.913Z,66.73
2022-10-20T08:54:34.804Z,66.04
2022-10-20T08:57:37.393Z,63.79
2022-10-20T09:00:43.999Z,64.96
2022-10-20T09:03:50.110Z,64.69
2022-10-20T09:07:00.443Z,63.56
2022-10-20T09:10:32.417Z,63.93
2022-10-20T09:13:37.138Z,63.85
2022-10-20T09:16:58.596Z,63.87
2022-10-20T09:20:02.929Z,62.83
2022-10-20T09:23:16.676Z,61.85
2022-10-20T09:26:54.124Z,61.07
2022-10-20T09:29:57.391Z,60.84
2022-10-20T09:33:01.179Z,59.83
2022-10-20T09:36:18.251Z,59.55
2022-10-20T09:39:27.418Z,59.65
2022-10-20T09:42:37.725Z,59.15
2022-10-20T09:45:53.971Z,58.25
2022-10-20T09:48:58.458Z,58.87
2022-10-20T09:52:03.246Z,57.49
2022-10-20T09:55:17.759Z,58.04
2022-10-20T09:58:26.498Z,58.30
2022-10-20T10:01:29.387Z,57.29
2022-10-20T10:04:38.368Z,56.90
2022-10-20T10:07:40.890Z,56.70
2022-10-20T10:10:46.776Z,55.64
2022-10-20T10:13:50.947Z,55.25
2022-10-20T10:16:53.766Z,56.54
2022-10-20T10:19:56.530Z,55.29
2022-10-20T10:23:21.470Z,55.61
2022-10-20T10:26:37.602Z,56.05
2022-10-20T10:29:40.388Z,55.14
2022-10-20T10:32:47.605Z,54.75
2022-10-20T10:35:50.464Z,54.74
2022-10-20T10:38:54.010Z,54.63
2022-10-20T10:42:25.836Z,53.83
2022-10-20T10:45:44.879Z,54.41
2022-10-20T10:49:21.714Z,55.28
2022-10-20T10:52:39.357Z,54.02
2022-10-20T10:59:17.133Z,54.27
2022-10-20T11:02:23.309Z,53.78
2022-10-20T11:05:32.029Z,54.12
2022-10-20T11:08:55.333Z,54.41
2022-10-20T11:12:26.325Z,54.16
2022-10-20T11:15:47.664Z,54.08
2022-10-20T11:19:14.832Z,54.56
2022-10-20T11:22:36.462Z,54.81
2022-10-20T11:25:41.266Z,54.38
2022-10-20T11:28:47.102Z,53.50
2022-10-20T11:32:25.662Z,54.69
2022-10-20T11:35:40.621Z,54.62
2022-10-20T11:38:57.368Z,54.71
2022-10-20T11:42:10.539Z,54.59
2022-10-20T11:45:42.240Z,53.75
2022-10-20T11:48:51.811Z,53.88
2022-10-20T11:51:54.909Z,53.63
2022-10-20T11:55:08.096Z,53.60
2022-10-20T11:58:26.828Z,54.09
2022-10-20T12:01:52.273Z,54.07
2022-10-20T12:05:06.780Z,54.62
2022-10-20T12:08:37.699Z,52.59
2022-10-20T12:11:57.330Z,53.09
2022-10-20T12:15:01.766Z,52.48
2022-10-20T12:18:05.996Z,52.20
2022-10-20T12:21:11.264Z,51.71
2022-10-20T12:24:34.352Z,53.00
2022-10-20T12:27:36.858Z,53.58
2022-10-20T12:30:43.653Z,53.58
2022-10-20T12:34:04.365Z,52.12
2022-10-20T12:37:24.390Z,51.53
2022-10-20T12:40:45.091Z,51.17
2022-10-20T12:43:50.325Z,51.48
2022-10-20T12:46:59.667Z,50.74
2022-10-20T12:50:39.771Z,51.04
2022-10-20T12:53:42.344Z,50.05
2022-10-20T12:56:45.528Z,49.28
2022-10-20T12:59:48.295Z,48.55
2022-10-20T13:02:52.671Z,50.01
2022-10-20T13:05:55.203Z,50.60
2022-10-20T13:09:04.264Z,50.99
2022-10-20T13:12:25.477Z,49.39
2022-10-20T13:15:33.051Z,49.71
2022-10-20T13:18:38.694Z,49.82
2022-10-20T13:21:43.281Z,49.12
2022-10-20T13:24:48.872Z,48.88
2022-10-20T13:27:51.760Z,49.26
2022-10-20T13:31:24.663Z,48.65
2022-10-20T13:34:36.225Z,49.11
2022-10-20T13:37:57.155Z,48.10
2022-10-20T13:41:07.707Z,48.79
2022-10-20T13:44:22.616Z,48.27
2022-10-20T13:48:00.835Z,48.69
2022-10-20T13:51:13.300Z,48.13
2022-10-20T13:54:25.486Z,49.00
2022-10-20T13:57:30.877Z,49.31
2022-10-20T14:00:36.219Z,49.26
2022-10-20T14:03:46.996Z,49.21
2022-10-20T14:06:49.498Z,48.56
2022-10-20T14:09:59.101Z,49.03
2022-10-20T14:13:02.807Z,49.39
2022-10-20T14:16:07.473Z,48.92
2022-10-20T14:19:13.724Z,49.20
2022-10-20T14:22:25.420Z,49.56
2022-10-20T14:25:28.638Z,49.67
2022-10-20T14:28:33.823Z,49.61
2022-10-20T14:31:36.456Z,50.28
2022-10-20T14:34:54.885Z,50.69
2022-10-20T14:37:59.478Z,50.83
2022-10-20T14:41:06.727Z,50.01
2022-10-20T14:44:30.114Z,50.60
2022-10-20T14:47:39.357Z,51.45
2022-10-20T14:50:48.287Z,52.08
2022-10-20T14:53:51.071Z,52.09
2022-10-20T14:56:58.164Z,52.64
2022-10-20T15:00:22.435Z,53.25
2022-10-20T15:03:25.054Z,53.55
2022-10-20T15:06:28.003Z,53.79
2022-10-20T15:09:32.803Z,53.92
2022-10-20T15:12:41.278Z,54.30
2022-10-20T15:15:43.845Z,54.70
2022-10-20T15:18:46.631Z,55.73
2022-10-20T15:21:58.392Z,55.89
2022-10-20T15:25:01.186Z,56.33
2022-10-20T15:28:03.910Z,56.46
2022-10-20T15:31:22.150Z,57.14
2022-10-20T15:34:25.591Z,57.22
2022-10-20T15:37:28.367Z,57.34
2022-10-20T15:40:35.528Z,58.03
2022-10-20T15:43:38.295Z,58.26
2022-10-20T15:46:42.140Z,58.74
2022-10-20T15:49:45.829Z,58.93
2022-10-20T15:52:48.471Z,59.38
2022-10-20T15:55:51.796Z,59.77
2022-10-20T15:58:54.471Z,59.86
2022-10-20T16:01:57.330Z,60.28
2022-10-20T16:05:00.081Z,60.36
2022-10-20T16:08:02.769Z,60.64
2022-10-20T16:11:06.896Z,60.93
2022-10-20T16:14:29.248Z,61.15
2022-10-20T16:17:52.063Z,61.26
2022-10-20T16:21:14.549Z,62.06
2022-10-20T16:24:37.277Z,62.33
2022-10-20T16:27:59.616Z,62.88
2022-10-20T16:31:22.265Z,63.83
2022-10-20T16:34:25.641Z,63.82
2022-10-20T16:37:30.329Z,64.19
2022-10-20T16:40:33.003Z,64.49
2022-10-20T16:43:40.364Z,64.76
2022-10-20T16:46:42.914Z,65.35
2022-10-20T16:49:45.690Z,65.55
2022-10-20T16:52:48.182Z,65.76
2022-10-20T16:55:55.656Z,65.86
2022-10-20T16:58:58.499Z,66.07
2022-10-20T17:02:01.288Z,66.36
2022-10-20T17:05:08.206Z,66.40
2022-10-20T17:08:12.442Z,66.72
2022-10-20T17:11:20.743Z,66.99
2022-10-20T17:14:23.569Z,67.04
2022-10-20T17:17:26.197Z,67.19
2022-10-20T17:20:32.391Z,67.79
2022-10-20T17:23:40.131Z,67.75
2022-10-20T17:26:45.716Z,68.41
2022-10-20T17:29:48.252Z,68.39
2022-10-20T17:32:51.059Z,68.65
2022-10-20T17:35:57.728Z,68.67
2022-10-20T17:39:03.925Z,68.61
2022-10-20T17:42:06.680Z,68.83
2022-10-20T17:45:10.036Z,68.99
2022-10-20T17:48:14.213Z,69.00
2022-10-20T17:51:22.091Z,69.38
2022-10-20T17:54:24.939Z,69.59
2022-10-20T17:57:30.113Z,69.63
2022-10-20T18:00:54.638Z,69.69
2022-10-20T18:04:01.724Z,70.09
2022-10-20T18:07:04.759Z,70.29
2022-10-20T18:10:08.912Z,70.58
2022-10-20T18:13:11.810Z,70.70
2022-10-20T18:16:18.053Z,70.59
2022-10-20T18:19:21.041Z,70.69
2022-10-20T18:22:24.084Z,70.78
2022-10-20T18:25:26.890Z,70.91
2022-10-20T18:28:30.061Z,71.12
2022-10-20T18:31:34.271Z,71.04
2022-10-20T18:34:38.605Z,70.97
2022-10-20T18:37:42.493Z,71.20
2022-10-20T18:40:45.554Z,71.19
2022-10-20T18:43:58.009Z,71.29
2022-10-20T18:47:01.302Z,71.32
2022-10-20T18:50:04.205Z,71.63
2022-10-20T18:53:07.360Z,71.75
2022-10-20T18:56:18.051Z,71.83
2022-10-20T18:59:22.884Z,71.78
2022-10-20T19:02:28.417Z,71.87
2022-10-20T19:05:31.427Z,71.66
2022-10-20T19:08:38.393Z,71.86
2022-10-20T19:11:42.078Z,72.26
2022-10-20T19:14:44.822Z,72.07
2022-10-20T19:17:47.794Z,72.09
2022-10-20T19:21:01.952Z,72.03
2022-10-20T19:24:08.715Z,71.90
2022-10-20T19:27:27.536Z,71.95
2022-10-20T19:30:34.261Z,72.12
2022-10-20T19:33:37.034Z,72.15
2022-10-20T19:36:42.605Z,72.37
2022-10-20T19:39:45.768Z,72.29
2022-10-20T19:42:48.864Z,72.38
2022-10-20T19:45:51.536Z,72.42
2022-10-20T19:48:55.483Z,72.56
2022-10-20T19:51:59.585Z,72.81
2022-10-20T19:55:02.552Z,72.84
2022-10-20T19:58:05.308Z,72.91
2022-10-20T20:01:09.330Z,72.73
2022-10-20T20:04:12.468Z,72.67
2022-10-20T20:07:15.234Z,72.56
2022-10-20T20:10:18.198Z,72.80
2022-10-20T20:13:21.375Z,72.73
2022-10-20T20:16:24.972Z,72.71
2022-10-20T20:19:27.678Z,72.73
2022-10-20T20:22:30.656Z,72.75
2022-10-20T20:25:40.332Z,72.87
2022-10-20T20:28:43.158Z,72.80
2022-10-20T20:31:45.658Z,72.76
2022-10-20T20:34:48.508Z,72.81
2022-10-20T20:37:50.985Z,72.86
2022-10-20T20:40:57.008Z,73.23
2022-10-20T20:44:04.164Z,73.47
2022-10-20T20:47:09.836Z,73.48
2022-10-20T20:50:12.713Z,73.43
2022-10-20T20:53:15.490Z,73.87
2022-10-20T20:56:21.680Z,73.98
2022-10-20T20:59:26.182Z,74.12
2022-10-20T21:02:28.668Z,74.37
2022-10-20T21:05:31.444Z,74.63
2022-10-20T21:08:38.324Z,74.86
2022-10-20T21:11:42.948Z,75.09
2022-10-20T21:14:47.944Z,75.07
2022-10-20T21:17:53.600Z,75.27
2022-10-20T21:20:56.128Z,75.26
2022-10-20T21:24:00.283Z,75.36
2022-10-20T21:27:02.906Z,75.45
2022-10-20T21:30:05.945Z,75.63
2022-10-20T21:33:08.417Z,75.83
2022-10-20T21:36:16.035Z,75.88
2022-10-20T21:39:18.636Z,75.94
2022-10-20T21:42:21.508Z,75.86
2022-10-20T21:45:23.985Z,75.99
2022-10-20T21:48:26.899Z,75.92
2022-10-20T21:51:37.915Z,76.04
2022-10-20T21:54:40.818Z,75.89
2022-10-20T21:57:43.333Z,76.10
2022-10-20T22:00:46.207Z,75.95
2022-10-20T22:03:50.124Z,76.13
2022-10-20T22:06:52.779Z,76.19
2022-10-20T22:09:55.587Z,76.06
2022-10-20T22:12:58.010Z,76.03
2022-10-20T22:16:01.225Z,76.10
2022-10-20T22:19:11.736Z,76.06
2022-10-20T22:22:14.594Z,76.01
2022-10-20T22:25:17.059Z,76.18
2022-10-20T22:28:19.834Z,76.02
2022-10-20T22:31:23.249Z,76.00
2022-10-20T22:34:26.020Z,75.74
2022-10-20T22:37:28.534Z,75.56
2022-10-20T22:40:31.381Z,75.25
2022-10-20T22:43:36.321Z,75.16
2022-10-20T22:46:39.170Z,74.97
2022-10-20T22:49:41.644Z,75.00
2022-10-20T22:52:44.486Z,74.99
2022-10-20T22:55:47.415Z,75.00
2022-10-20T22:58:52.186Z,74.88
2022-10-20T23:01:54.725Z,74.77
2022-10-20T23:04:57.522Z,74.67
2022-10-20T23:08:00.018Z,74.56
2022-10-20T23:11:02.962Z,74.79
2022-10-20T23:14:05.435Z,75.02
2022-10-20T23:17:08.252Z,75.28
2022-10-20T23:20:11.265Z,75.07
2022-10-20T23:23:14.184Z,75.00
2022-10-20T23:26:16.723Z,75.11
2022-10-20T23:29:19.565Z,75.25
2022-10-20T23:32:22.008Z,75.35
2022-10-20T23:35:24.808Z,75.11
2022-10-20T23:38:27.467Z,75.00
2022-10-20T23:41:30.675Z,75.26
2022-10-20T23:44:33.151Z,75.20
2022-10-20T23:47:36.308Z,75.24
2022-10-20T23:50:39.162Z,74.91
2022-10-20T23:53:41.993Z,75.47
2022-10-20T23:56:44.482Z,75.43
2022-10-20T23:59:47.269Z,75.48
